sensor_id;sensor_type;location;lat;lon;timestamp;temperature;humidity
65239;SHT30;51827;51.186;6.926;2023-03-01T00:00:04;18.65;43.04
65239;SHT30;51827;51.186;6.926;2023-03-01T00:01:09;18.64;43.03
65239;SHT30;51827;51.186;6.926;2023-03-01T00:02:09;18.62;43.04
65239;SHT30;51827;51.186;6.926;2023-03-01T00:03:09;18.62;43.20
65239;SHT30;51827;51.186;6.926;2023-03-01T00:04:09;18.65;43.33
65239;SHT30;51827;51.186;6.926;2023-03-01T00:05:10;18.65;43.41
65239;SHT30;51827;51.186;6.926;2023-03-01T00:06:10;18.62;43.53
65239;SHT30;51827;51.186;6.926;2023-03-01T00:07:10;18.64;43.57
65239;SHT30;51827;51.186;6.926;2023-03-01T00:08:10;18.62;43.63
65239;SHT30;51827;51.186;6.926;2023-03-01T00:09:11;18.64;43.64
65239;SHT30;51827;51.186;6.926;2023-03-01T00:10:11;18.65;43.68
65239;SHT30;51827;51.186;6.926;2023-03-01T00:12:11;18.64;43.69
65239;SHT30;51827;51.186;6.926;2023-03-01T00:13:12;18.65;43.71
65239;SHT30;51827;51.186;6.926;2023-03-01T00:14:12;18.65;43.69
65239;SHT30;51827;51.186;6.926;2023-03-01T00:15:12;18.65;43.69
65239;SHT30;51827;51.186;6.926;2023-03-01T00:16:14;18.65;43.71
65239;SHT30;51827;51.186;6.926;2023-03-01T00:17:14;18.65;43.74
65239;SHT30;51827;51.186;6.926;2023-03-01T00:18:14;18.66;43.73
65239;SHT30;51827;51.186;6.926;2023-03-01T00:19:16;18.66;43.69
65239;SHT30;51827;51.186;6.926;2023-03-01T00:20:16;18.66;43.71
65239;SHT30;51827;51.186;6.926;2023-03-01T00:21:16;18.66;43.70
65239;SHT30;51827;51.186;6.926;2023-03-01T00:22:16;18.66;43.76
65239;SHT30;51827;51.186;6.926;2023-03-01T00:23:17;18.65;43.75
65239;SHT30;51827;51.186;6.926;2023-03-01T00:24:17;18.65;43.74
65239;SHT30;51827;51.186;6.926;2023-03-01T00:25:17;18.66;43.71
65239;SHT30;51827;51.186;6.926;2023-03-01T00:26:18;18.66;43.71
65239;SHT30;51827;51.186;6.926;2023-03-01T00:27:18;18.65;43.71
65239;SHT30;51827;51.186;6.926;2023-03-01T00:28:18;18.66;43.76
65239;SHT30;51827;51.186;6.926;2023-03-01T00:29:19;18.65;43.76
65239;SHT30;51827;51.186;6.926;2023-03-01T00:30:19;18.66;43.74
65239;SHT30;51827;51.186;6.926;2023-03-01T00:31:20;18.64;43.77
65239;SHT30;51827;51.186;6.926;2023-03-01T00:32:21;18.66;43.76
65239;SHT30;51827;51.186;6.926;2023-03-01T00:33:21;18.62;43.80
65239;SHT30;51827;51.186;6.926;2023-03-01T00:34:21;18.62;43.76
65239;SHT30;51827;51.186;6.926;2023-03-01T00:35:21;18.66;43.80
65239;SHT30;51827;51.186;6.926;2023-03-01T00:36:21;18.65;43.74
65239;SHT30;51827;51.186;6.926;2023-03-01T00:37:22;18.66;43.70
65239;SHT30;51827;51.186;6.926;2023-03-01T00:38:22;18.68;43.74
65239;SHT30;51827;51.186;6.926;2023-03-01T00:39:22;18.66;43.71
65239;SHT30;51827;51.186;6.926;2023-03-01T00:40:32;18.66;43.71
65239;SHT30;51827;51.186;6.926;2023-03-01T00:41:33;18.66;43.70
65239;SHT30;51827;51.186;6.926;2023-03-01T00:42:33;18.66;43.70
65239;SHT30;51827;51.186;6.926;2023-03-01T00:43:33;18.66;43.70
65239;SHT30;51827;51.186;6.926;2023-03-01T00:44:33;18.66;43.69
65239;SHT30;51827;51.186;6.926;2023-03-01T00:45:33;18.64;43.74
65239;SHT30;51827;51.186;6.926;2023-03-01T00:46:33;18.65;43.75
65239;SHT30;51827;51.186;6.926;2023-03-01T00:47:34;18.66;43.71
65239;SHT30;51827;51.186;6.926;2023-03-01T00:48:34;18.65;43.74
65239;SHT30;51827;51.186;6.926;2023-03-01T00:49:34;18.68;43.74
65239;SHT30;51827;51.186;6.926;2023-03-01T00:50:35;18.64;43.73
65239;SHT30;51827;51.186;6.926;2023-03-01T00:51:35;18.62;43.74
65239;SHT30;51827;51.186;6.926;2023-03-01T00:52:35;18.66;43.74
65239;SHT30;51827;51.186;6.926;2023-03-01T00:53:35;18.64;43.74
65239;SHT30;51827;51.186;6.926;2023-03-01T00:54:35;18.65;43.74
65239;SHT30;51827;51.186;6.926;2023-03-01T00:55:36;18.64;43.78
65239;SHT30;51827;51.186;6.926;2023-03-01T00:56:36;18.65;43.77
65239;SHT30;51827;51.186;6.926;2023-03-01T00:57:36;18.62;43.75
65239;SHT30;51827;51.186;6.926;2023-03-01T00:58:36;18.65;43.73
65239;SHT30;51827;51.186;6.926;2023-03-01T00:59:36;18.65;43.70
65239;SHT30;51827;51.186;6.926;2023-03-01T01:00:37;18.66;43.70
65239;SHT30;51827;51.186;6.926;2023-03-01T01:01:37;18.66;43.75
65239;SHT30;51827;51.186;6.926;2023-03-01T01:02:37;18.64;43.76
65239;SHT30;51827;51.186;6.926;2023-03-01T01:03:37;18.64;43.70
65239;SHT30;51827;51.186;6.926;2023-03-01T01:04:38;18.66;43.70
65239;SHT30;51827;51.186;6.926;2023-03-01T01:05:38;18.64;43.73
65239;SHT30;51827;51.186;6.926;2023-03-01T01:06:42;18.65;43.73
65239;SHT30;51827;51.186;6.926;2023-03-01T01:07:42;18.62;43.69
65239;SHT30;51827;51.186;6.926;2023-03-01T01:08:42;18.65;43.75
65239;SHT30;51827;51.186;6.926;2023-03-01T01:09:43;18.64;43.75
65239;SHT30;51827;51.186;6.926;2023-03-01T01:10:43;18.65;43.77
65239;SHT30;51827;51.186;6.926;2023-03-01T01:11:47;18.65;43.75
65239;SHT30;51827;51.186;6.926;2023-03-01T01:12:48;18.65;43.76
65239;SHT30;51827;51.186;6.926;2023-03-01T01:13:48;18.65;43.75
65239;SHT30;51827;51.186;6.926;2023-03-01T01:14:48;18.65;43.74
65239;SHT30;51827;51.186;6.926;2023-03-01T01:15:48;18.64;43.70
65239;SHT30;51827;51.186;6.926;2023-03-01T01:16:49;18.66;43.74
65239;SHT30;51827;51.186;6.926;2023-03-01T01:17:49;18.65;43.76
65239;SHT30;51827;51.186;6.926;2023-03-01T01:18:50;18.66;43.71
65239;SHT30;51827;51.186;6.926;2023-03-01T01:19:50;18.66;43.70
65239;SHT30;51827;51.186;6.926;2023-03-01T01:20:50;18.62;43.68
65239;SHT30;51827;51.186;6.926;2023-03-01T01:21:50;18.65;43.73
65239;SHT30;51827;51.186;6.926;2023-03-01T01:22:50;18.64;43.77
65239;SHT30;51827;51.186;6.926;2023-03-01T01:23:51;18.65;43.71
65239;SHT30;51827;51.186;6.926;2023-03-01T01:24:51;18.65;43.73
65239;SHT30;51827;51.186;6.926;2023-03-01T01:25:51;18.64;43.74
65239;SHT30;51827;51.186;6.926;2023-03-01T01:26:51;18.64;43.76
65239;SHT30;51827;51.186;6.926;2023-03-01T01:27:51;18.62;43.73
65239;SHT30;51827;51.186;6.926;2023-03-01T01:28:51;18.59;43.72
65239;SHT30;51827;51.186;6.926;2023-03-01T01:29:52;18.64;43.78
65239;SHT30;51827;51.186;6.926;2023-03-01T01:30:52;18.61;43.81
65239;SHT30;51827;51.186;6.926;2023-03-01T01:31:53;18.64;43.74
65239;SHT30;51827;51.186;6.926;2023-03-01T01:32:53;18.65;43.69
65239;SHT30;51827;51.186;6.926;2023-03-01T01:33:55;18.62;43.69
65239;SHT30;51827;51.186;6.926;2023-03-01T01:34:55;18.66;43.70
65239;SHT30;51827;51.186;6.926;2023-03-01T01:35:55;18.65;43.73
65239;SHT30;51827;51.186;6.926;2023-03-01T01:36:55;18.64;43.72
65239;SHT30;51827;51.186;6.926;2023-03-01T01:37:55;18.65;43.68
65239;SHT30;51827;51.186;6.926;2023-03-01T01:38:56;18.66;43.70
65239;SHT30;51827;51.186;6.926;2023-03-01T01:40:00;18.64;43.73
65239;SHT30;51827;51.186;6.926;2023-03-01T01:41:00;18.65;43.68
65239;SHT30;51827;51.186;6.926;2023-03-01T01:42:01;18.64;43.69
65239;SHT30;51827;51.186;6.926;2023-03-01T01:43:01;18.64;43.71
65239;SHT30;51827;51.186;6.926;2023-03-01T01:44:10;18.65;43.75
65239;SHT30;51827;51.186;6.926;2023-03-01T01:45:27;18.65;43.68
65239;SHT30;51827;51.186;6.926;2023-03-01T01:46:29;18.65;43.70
65239;SHT30;51827;51.186;6.926;2023-03-01T01:47:30;18.65;43.70
65239;SHT30;51827;51.186;6.926;2023-03-01T01:48:41;18.62;43.69
65239;SHT30;51827;51.186;6.926;2023-03-01T01:49:44;18.65;43.74
65239;SHT30;51827;51.186;6.926;2023-03-01T01:50:46;18.64;43.80
65239;SHT30;51827;51.186;6.926;2023-03-01T01:51:50;18.62;43.76
65239;SHT30;51827;51.186;6.926;2023-03-01T01:52:51;18.64;43.75
65239;SHT30;51827;51.186;6.926;2023-03-01T01:53:53;18.64;43.71
65239;SHT30;51827;51.186;6.926;2023-03-01T01:55:55;18.65;43.74
65239;SHT30;51827;51.186;6.926;2023-03-01T01:56:59;18.65;43.74
65239;SHT30;51827;51.186;6.926;2023-03-01T01:58:02;18.61;43.72
65239;SHT30;51827;51.186;6.926;2023-03-01T01:59:02;18.62;43.72
65239;SHT30;51827;51.186;6.926;2023-03-01T02:00:07;18.62;43.75
65239;SHT30;51827;51.186;6.926;2023-03-01T02:01:07;18.65;43.68
65239;SHT30;51827;51.186;6.926;2023-03-01T02:02:08;18.62;43.70
65239;SHT30;51827;51.186;6.926;2023-03-01T02:03:10;18.64;43.71
65239;SHT30;51827;51.186;6.926;2023-03-01T02:04:10;18.66;43.66
65239;SHT30;51827;51.186;6.926;2023-03-01T02:05:12;18.65;43.74
65239;SHT30;51827;51.186;6.926;2023-03-01T02:06:31;18.65;43.74
65239;SHT30;51827;51.186;6.926;2023-03-01T02:07:33;18.62;43.71
65239;SHT30;51827;51.186;6.926;2023-03-01T02:08:35;18.64;43.73
65239;SHT30;51827;51.186;6.926;2023-03-01T02:09:36;18.65;43.66
65239;SHT30;51827;51.186;6.926;2023-03-01T02:10:36;18.62;43.70
65239;SHT30;51827;51.186;6.926;2023-03-01T02:11:37;18.64;43.73
65239;SHT30;51827;51.186;6.926;2023-03-01T02:12:37;18.64;43.68
65239;SHT30;51827;51.186;6.926;2023-03-01T02:13:38;18.65;43.68
65239;SHT30;51827;51.186;6.926;2023-03-01T02:14:38;18.64;43.71
65239;SHT30;51827;51.186;6.926;2023-03-01T02:15:39;18.64;43.72
65239;SHT30;51827;51.186;6.926;2023-03-01T02:16:40;18.61;43.70
65239;SHT30;51827;51.186;6.926;2023-03-01T02:17:40;18.62;43.70
65239;SHT30;51827;51.186;6.926;2023-03-01T02:18:41;18.64;43.66
65239;SHT30;51827;51.186;6.926;2023-03-01T02:22:00;18.62;43.63
65239;SHT30;51827;51.186;6.926;2023-03-01T02:23:04;18.62;43.67
65239;SHT30;51827;51.186;6.926;2023-03-01T02:24:10;18.64;43.63
65239;SHT30;51827;51.186;6.926;2023-03-01T02:27:31;18.62;43.61
65239;SHT30;51827;51.186;6.926;2023-03-01T02:28:34;18.64;43.66
65239;SHT30;51827;51.186;6.926;2023-03-01T02:29:35;18.64;43.62
65239;SHT30;51827;51.186;6.926;2023-03-01T02:30:35;18.65;43.65
65239;SHT30;51827;51.186;6.926;2023-03-01T02:31:35;18.61;43.68
65239;SHT30;51827;51.186;6.926;2023-03-01T02:32:35;18.61;43.64
65239;SHT30;51827;51.186;6.926;2023-03-01T02:33:36;18.62;43.66
65239;SHT30;51827;51.186;6.926;2023-03-01T02:34:37;18.64;43.68
65239;SHT30;51827;51.186;6.926;2023-03-01T02:35:38;18.62;43.66
65239;SHT30;51827;51.186;6.926;2023-03-01T02:36:39;18.62;43.64
65239;SHT30;51827;51.186;6.926;2023-03-01T02:37:41;18.62;43.63
65239;SHT30;51827;51.186;6.926;2023-03-01T02:38:41;18.64;43.69
65239;SHT30;51827;51.186;6.926;2023-03-01T02:39:42;18.64;43.60
65239;SHT30;51827;51.186;6.926;2023-03-01T02:40:44;18.62;43.63
65239;SHT30;51827;51.186;6.926;2023-03-01T02:41:47;18.62;43.61
65239;SHT30;51827;51.186;6.926;2023-03-01T02:42:50;18.64;43.65
65239;SHT30;51827;51.186;6.926;2023-03-01T02:43:51;18.62;43.63
65239;SHT30;51827;51.186;6.926;2023-03-01T02:44:51;18.65;43.60
65239;SHT30;51827;51.186;6.926;2023-03-01T02:45:51;18.64;43.56
65239;SHT30;51827;51.186;6.926;2023-03-01T02:46:53;18.64;43.58
65239;SHT30;51827;51.186;6.926;2023-03-01T02:47:54;18.62;43.58
65239;SHT30;51827;51.186;6.926;2023-03-01T02:48:56;18.62;43.57
65239;SHT30;51827;51.186;6.926;2023-03-01T02:49:56;18.62;43.58
65239;SHT30;51827;51.186;6.926;2023-03-01T02:51:31;18.65;43.55
65239;SHT30;51827;51.186;6.926;2023-03-01T02:53:45;18.66;43.53
65239;SHT30;51827;51.186;6.926;2023-03-01T02:54:50;18.65;43.57
65239;SHT30;51827;51.186;6.926;2023-03-01T02:55:54;18.62;43.57
65239;SHT30;51827;51.186;6.926;2023-03-01T02:56:54;18.62;43.57
65239;SHT30;51827;51.186;6.926;2023-03-01T02:57:54;18.64;43.53
65239;SHT30;51827;51.186;6.926;2023-03-01T02:58:55;18.65;43.55
65239;SHT30;51827;51.186;6.926;2023-03-01T02:59:57;18.64;43.55
65239;SHT30;51827;51.186;6.926;2023-03-01T03:00:59;18.64;43.55
65239;SHT30;51827;51.186;6.926;2023-03-01T03:02:00;18.64;43.53
65239;SHT30;51827;51.186;6.926;2023-03-01T03:03:00;18.62;43.57
65239;SHT30;51827;51.186;6.926;2023-03-01T03:04:00;18.64;43.51
65239;SHT30;51827;51.186;6.926;2023-03-01T03:05:01;18.65;43.55
65239;SHT30;51827;51.186;6.926;2023-03-01T03:06:02;18.62;43.52
65239;SHT30;51827;51.186;6.926;2023-03-01T03:07:02;18.62;43.55
65239;SHT30;51827;51.186;6.926;2023-03-01T03:08:02;18.62;43.53
65239;SHT30;51827;51.186;6.926;2023-03-01T03:09:03;18.62;43.57
65239;SHT30;51827;51.186;6.926;2023-03-01T03:10:05;18.62;43.53
65239;SHT30;51827;51.186;6.926;2023-03-01T03:11:05;18.61;43.53
65239;SHT30;51827;51.186;6.926;2023-03-01T03:12:05;18.62;43.51
65239;SHT30;51827;51.186;6.926;2023-03-01T03:13:10;18.61;43.54
65239;SHT30;51827;51.186;6.926;2023-03-01T03:14:11;18.62;43.52
65239;SHT30;51827;51.186;6.926;2023-03-01T03:15:12;18.64;43.52
65239;SHT30;51827;51.186;6.926;2023-03-01T03:16:12;18.61;43.51
65239;SHT30;51827;51.186;6.926;2023-03-01T03:17:12;18.59;43.57
65239;SHT30;51827;51.186;6.926;2023-03-01T03:18:14;18.61;43.51
65239;SHT30;51827;51.186;6.926;2023-03-01T03:19:14;18.62;43.55
65239;SHT30;51827;51.186;6.926;2023-03-01T03:20:15;18.61;43.54
65239;SHT30;51827;51.186;6.926;2023-03-01T03:21:16;18.61;43.53
65239;SHT30;51827;51.186;6.926;2023-03-01T03:22:16;18.62;43.48
65239;SHT30;51827;51.186;6.926;2023-03-01T03:23:16;18.64;43.52
65239;SHT30;51827;51.186;6.926;2023-03-01T03:24:16;18.61;43.52
65239;SHT30;51827;51.186;6.926;2023-03-01T03:25:17;18.62;43.54
65239;SHT30;51827;51.186;6.926;2023-03-01T03:26:17;18.59;43.54
65239;SHT30;51827;51.186;6.926;2023-03-01T03:27:18;18.62;43.51
65239;SHT30;51827;51.186;6.926;2023-03-01T03:28:18;18.64;43.52
65239;SHT30;51827;51.186;6.926;2023-03-01T03:29:18;18.59;43.50
65239;SHT30;51827;51.186;6.926;2023-03-01T03:30:18;18.61;43.54
65239;SHT30;51827;51.186;6.926;2023-03-01T03:31:19;18.61;43.52
65239;SHT30;51827;51.186;6.926;2023-03-01T03:32:19;18.64;43.54
65239;SHT30;51827;51.186;6.926;2023-03-01T03:33:19;18.61;43.49
65239;SHT30;51827;51.186;6.926;2023-03-01T03:34:19;18.59;43.51
65239;SHT30;51827;51.186;6.926;2023-03-01T03:35:20;18.59;43.47
65239;SHT30;51827;51.186;6.926;2023-03-01T03:36:22;18.59;43.48
65239;SHT30;51827;51.186;6.926;2023-03-01T03:37:23;18.59;43.49
65239;SHT30;51827;51.186;6.926;2023-03-01T03:38:23;18.61;43.49
65239;SHT30;51827;51.186;6.926;2023-03-01T03:39:23;18.59;43.44
65239;SHT30;51827;51.186;6.926;2023-03-01T03:40:24;18.61;43.47
65239;SHT30;51827;51.186;6.926;2023-03-01T03:41:24;18.62;43.46
65239;SHT30;51827;51.186;6.926;2023-03-01T03:42:24;18.62;43.46
65239;SHT30;51827;51.186;6.926;2023-03-01T03:43:24;18.62;43.48
65239;SHT30;51827;51.186;6.926;2023-03-01T03:44:24;18.64;43.49
65239;SHT30;51827;51.186;6.926;2023-03-01T03:45:25;18.62;43.48
65239;SHT30;51827;51.186;6.926;2023-03-01T03:46:25;18.61;43.47
65239;SHT30;51827;51.186;6.926;2023-03-01T03:47:25;18.62;43.48
65239;SHT30;51827;51.186;6.926;2023-03-01T03:48:25;18.61;43.44
65239;SHT30;51827;51.186;6.926;2023-03-01T03:49:26;18.61;43.44
65239;SHT30;51827;51.186;6.926;2023-03-01T03:50:26;18.62;43.46
65239;SHT30;51827;51.186;6.926;2023-03-01T03:51:26;18.61;43.46
65239;SHT30;51827;51.186;6.926;2023-03-01T03:52:26;18.62;43.49
65239;SHT30;51827;51.186;6.926;2023-03-01T03:53:27;18.62;43.44
65239;SHT30;51827;51.186;6.926;2023-03-01T03:54:27;18.59;43.47
65239;SHT30;51827;51.186;6.926;2023-03-01T03:55:28;18.61;43.42
65239;SHT30;51827;51.186;6.926;2023-03-01T03:56:28;18.62;43.46
65239;SHT30;51827;51.186;6.926;2023-03-01T03:57:28;18.61;43.42
65239;SHT30;51827;51.186;6.926;2023-03-01T03:58:28;18.64;43.43
65239;SHT30;51827;51.186;6.926;2023-03-01T03:59:28;18.64;43.44
65239;SHT30;51827;51.186;6.926;2023-03-01T04:00:29;18.62;43.40
65239;SHT30;51827;51.186;6.926;2023-03-01T04:01:29;18.62;43.46
65239;SHT30;51827;51.186;6.926;2023-03-01T04:02:29;18.62;43.42
65239;SHT30;51827;51.186;6.926;2023-03-01T04:03:29;18.64;43.41
65239;SHT30;51827;51.186;6.926;2023-03-01T04:04:30;18.61;43.37
65239;SHT30;51827;51.186;6.926;2023-03-01T04:05:30;18.65;43.45
65239;SHT30;51827;51.186;6.926;2023-03-01T04:06:30;18.59;43.42
65239;SHT30;51827;51.186;6.926;2023-03-01T04:07:30;18.59;43.42
65239;SHT30;51827;51.186;6.926;2023-03-01T04:08:30;18.61;43.47
65239;SHT30;51827;51.186;6.926;2023-03-01T04:09:31;18.62;43.45
65239;SHT30;51827;51.186;6.926;2023-03-01T04:10:33;18.61;43.46
65239;SHT30;51827;51.186;6.926;2023-03-01T04:11:33;18.62;43.42
65239;SHT30;51827;51.186;6.926;2023-03-01T04:12:33;18.62;43.41
65239;SHT30;51827;51.186;6.926;2023-03-01T04:13:34;18.62;43.40
65239;SHT30;51827;51.186;6.926;2023-03-01T04:14:34;18.59;43.46
65239;SHT30;51827;51.186;6.926;2023-03-01T04:15:34;18.58;43.44
65239;SHT30;51827;51.186;6.926;2023-03-01T04:16:34;18.64;43.41
65239;SHT30;51827;51.186;6.926;2023-03-01T04:17:34;18.62;43.44
65239;SHT30;51827;51.186;6.926;2023-03-01T04:18:34;18.61;43.41
65239;SHT30;51827;51.186;6.926;2023-03-01T04:19:35;18.61;43.40
65239;SHT30;51827;51.186;6.926;2023-03-01T04:20:35;18.62;43.45
65239;SHT30;51827;51.186;6.926;2023-03-01T04:21:35;18.61;43.42
65239;SHT30;51827;51.186;6.926;2023-03-01T04:22:35;18.58;43.44
65239;SHT30;51827;51.186;6.926;2023-03-01T04:23:35;18.59;43.43
65239;SHT30;51827;51.186;6.926;2023-03-01T04:24:36;18.56;43.43
65239;SHT30;51827;51.186;6.926;2023-03-01T04:25:40;18.58;43.37
65239;SHT30;51827;51.186;6.926;2023-03-01T04:26:40;18.58;43.35
65239;SHT30;51827;51.186;6.926;2023-03-01T04:27:40;18.61;43.34
65239;SHT30;51827;51.186;6.926;2023-03-01T04:28:41;18.59;43.38
65239;SHT30;51827;51.186;6.926;2023-03-01T04:29:42;18.61;43.36
65239;SHT30;51827;51.186;6.926;2023-03-01T04:30:42;18.59;43.32
65239;SHT30;51827;51.186;6.926;2023-03-01T04:31:42;18.59;43.33
65239;SHT30;51827;51.186;6.926;2023-03-01T04:32:43;18.59;43.30
65239;SHT30;51827;51.186;6.926;2023-03-01T04:33:44;18.58;43.35
65239;SHT30;51827;51.186;6.926;2023-03-01T04:34:45;18.56;43.28
65239;SHT30;51827;51.186;6.926;2023-03-01T04:35:45;18.58;43.28
65239;SHT30;51827;51.186;6.926;2023-03-01T04:36:45;18.56;43.28
65239;SHT30;51827;51.186;6.926;2023-03-01T04:37:45;18.56;43.30
65239;SHT30;51827;51.186;6.926;2023-03-01T04:38:46;18.59;43.82
65239;SHT30;51827;51.186;6.926;2023-03-01T04:39:46;18.62;43.71
65239;SHT30;51827;51.186;6.926;2023-03-01T04:40:46;18.62;44.02
65239;SHT30;51827;51.186;6.926;2023-03-01T04:41:46;18.62;44.00
65239;SHT30;51827;51.186;6.926;2023-03-01T04:42:46;18.62;44.50
65239;SHT30;51827;51.186;6.926;2023-03-01T04:43:46;18.64;44.60
65239;SHT30;51827;51.186;6.926;2023-03-01T04:44:47;18.64;44.80
65239;SHT30;51827;51.186;6.926;2023-03-01T04:45:47;18.65;44.91
65239;SHT30;51827;51.186;6.926;2023-03-01T04:46:48;18.65;45.02
65239;SHT30;51827;51.186;6.926;2023-03-01T04:47:48;18.65;44.91
65239;SHT30;51827;51.186;6.926;2023-03-01T04:48:48;18.65;44.83
65239;SHT30;51827;51.186;6.926;2023-03-01T04:49:49;18.64;44.84
65239;SHT30;51827;51.186;6.926;2023-03-01T04:50:49;18.64;44.82
65239;SHT30;51827;51.186;6.926;2023-03-01T04:51:49;18.62;44.88
65239;SHT30;51827;51.186;6.926;2023-03-01T04:52:50;18.64;44.83
65239;SHT30;51827;51.186;6.926;2023-03-01T04:53:50;18.64;44.75
65239;SHT30;51827;51.186;6.926;2023-03-01T04:54:51;18.62;44.68
65239;SHT30;51827;51.186;6.926;2023-03-01T04:55:51;18.64;44.68
65239;SHT30;51827;51.186;6.926;2023-03-01T04:56:51;18.62;44.71
65239;SHT30;51827;51.186;6.926;2023-03-01T04:57:51;18.62;44.62
65239;SHT30;51827;51.186;6.926;2023-03-01T04:58:54;18.62;44.58
65239;SHT30;51827;51.186;6.926;2023-03-01T04:59:55;18.62;44.51
65239;SHT30;51827;51.186;6.926;2023-03-01T05:00:55;18.64;44.49
65239;SHT30;51827;51.186;6.926;2023-03-01T05:01:55;18.62;44.47
65239;SHT30;51827;51.186;6.926;2023-03-01T05:02:56;18.62;44.46
65239;SHT30;51827;51.186;6.926;2023-03-01T05:03:57;18.59;44.44
65239;SHT30;51827;51.186;6.926;2023-03-01T05:04:57;18.65;44.39
65239;SHT30;51827;51.186;6.926;2023-03-01T05:05:58;18.62;44.38
65239;SHT30;51827;51.186;6.926;2023-03-01T05:06:58;18.62;44.30
65239;SHT30;51827;51.186;6.926;2023-03-01T05:07:59;18.62;44.31
65239;SHT30;51827;51.186;6.926;2023-03-01T05:08:59;18.62;44.27
65239;SHT30;51827;51.186;6.926;2023-03-01T05:09:59;18.64;44.21
65239;SHT30;51827;51.186;6.926;2023-03-01T05:10:59;18.62;44.20
65239;SHT30;51827;51.186;6.926;2023-03-01T05:12:00;18.62;44.23
65239;SHT30;51827;51.186;6.926;2023-03-01T05:13:00;18.62;44.14
65239;SHT30;51827;51.186;6.926;2023-03-01T05:14:04;18.59;44.18
65239;SHT30;51827;51.186;6.926;2023-03-01T05:15:04;18.59;44.18
65239;SHT30;51827;51.186;6.926;2023-03-01T05:16:05;18.59;44.19
65239;SHT30;51827;51.186;6.926;2023-03-01T05:17:05;18.64;44.15
65239;SHT30;51827;51.186;6.926;2023-03-01T05:18:06;18.59;44.08
65239;SHT30;51827;51.186;6.926;2023-03-01T05:19:06;18.59;44.15
65239;SHT30;51827;51.186;6.926;2023-03-01T05:20:06;18.61;44.14
65239;SHT30;51827;51.186;6.926;2023-03-01T05:21:08;18.58;44.15
65239;SHT30;51827;51.186;6.926;2023-03-01T05:22:08;18.61;44.14
65239;SHT30;51827;51.186;6.926;2023-03-01T05:23:08;18.59;44.12
65239;SHT30;51827;51.186;6.926;2023-03-01T05:24:08;18.61;44.12
65239;SHT30;51827;51.186;6.926;2023-03-01T05:25:09;18.59;44.08
65239;SHT30;51827;51.186;6.926;2023-03-01T05:26:09;18.59;44.08
65239;SHT30;51827;51.186;6.926;2023-03-01T05:27:09;18.61;44.08
65239;SHT30;51827;51.186;6.926;2023-03-01T05:28:10;18.61;44.08
65239;SHT30;51827;51.186;6.926;2023-03-01T05:29:11;18.61;44.09
65239;SHT30;51827;51.186;6.926;2023-03-01T05:30:11;18.58;44.06
65239;SHT30;51827;51.186;6.926;2023-03-01T05:31:11;18.59;44.03
65239;SHT30;51827;51.186;6.926;2023-03-01T05:32:12;18.59;44.07
65239;SHT30;51827;51.186;6.926;2023-03-01T05:33:12;18.59;44.08
65239;SHT30;51827;51.186;6.926;2023-03-01T05:34:12;18.61;44.06
65239;SHT30;51827;51.186;6.926;2023-03-01T05:35:13;18.61;44.14
65239;SHT30;51827;51.186;6.926;2023-03-01T05:36:13;18.61;44.17
65239;SHT30;51827;51.186;6.926;2023-03-01T05:37:13;18.61;44.15
65239;SHT30;51827;51.186;6.926;2023-03-01T05:38:14;18.61;44.38
65239;SHT30;51827;51.186;6.926;2023-03-01T05:39:14;18.62;44.47
65239;SHT30;51827;51.186;6.926;2023-03-01T05:40:16;18.61;44.43
65239;SHT30;51827;51.186;6.926;2023-03-01T05:41:16;18.58;44.39
65239;SHT30;51827;51.186;6.926;2023-03-01T05:42:16;18.61;44.36
65239;SHT30;51827;51.186;6.926;2023-03-01T05:43:17;18.58;44.36
65239;SHT30;51827;51.186;6.926;2023-03-01T05:44:17;18.58;44.36
65239;SHT30;51827;51.186;6.926;2023-03-01T05:45:17;18.56;44.33
65239;SHT30;51827;51.186;6.926;2023-03-01T05:46:17;18.58;44.29
65239;SHT30;51827;51.186;6.926;2023-03-01T05:47:17;18.59;44.29
65239;SHT30;51827;51.186;6.926;2023-03-01T05:48:18;18.58;44.26
65239;SHT30;51827;51.186;6.926;2023-03-01T05:49:18;18.59;44.21
65239;SHT30;51827;51.186;6.926;2023-03-01T05:50:25;18.58;44.20
65239;SHT30;51827;51.186;6.926;2023-03-01T05:51:26;18.58;44.19
65239;SHT30;51827;51.186;6.926;2023-03-01T05:52:26;18.58;44.15
65239;SHT30;51827;51.186;6.926;2023-03-01T05:53:26;18.56;44.21
65239;SHT30;51827;51.186;6.926;2023-03-01T05:54:26;18.58;44.19
65239;SHT30;51827;51.186;6.926;2023-03-01T05:55:27;18.58;44.15
65239;SHT30;51827;51.186;6.926;2023-03-01T05:56:27;18.58;44.13
65239;SHT30;51827;51.186;6.926;2023-03-01T05:57:28;18.55;44.13
65239;SHT30;51827;51.186;6.926;2023-03-01T05:58:28;18.56;44.15
65239;SHT30;51827;51.186;6.926;2023-03-01T05:59:28;18.54;44.16
65239;SHT30;51827;51.186;6.926;2023-03-01T06:00:29;18.56;44.15
65239;SHT30;51827;51.186;6.926;2023-03-01T06:01:29;18.55;44.15
65239;SHT30;51827;51.186;6.926;2023-03-01T06:02:29;18.55;44.09
65239;SHT30;51827;51.186;6.926;2023-03-01T06:03:29;18.56;44.06
65239;SHT30;51827;51.186;6.926;2023-03-01T06:04:29;18.56;44.07
65239;SHT30;51827;51.186;6.926;2023-03-01T06:05:29;18.58;44.03
65239;SHT30;51827;51.186;6.926;2023-03-01T06:06:33;18.56;44.05
65239;SHT30;51827;51.186;6.926;2023-03-01T06:07:33;18.55;44.08
65239;SHT30;51827;51.186;6.926;2023-03-01T06:08:34;18.55;44.03
65239;SHT30;51827;51.186;6.926;2023-03-01T06:09:34;18.56;43.99
65239;SHT30;51827;51.186;6.926;2023-03-01T06:10:34;18.58;44.04
65239;SHT30;51827;51.186;6.926;2023-03-01T06:11:34;18.55;44.04
65239;SHT30;51827;51.186;6.926;2023-03-01T06:12:36;18.55;43.97
65239;SHT30;51827;51.186;6.926;2023-03-01T06:13:36;18.56;43.93
65239;SHT30;51827;51.186;6.926;2023-03-01T06:14:37;18.56;43.95
65239;SHT30;51827;51.186;6.926;2023-03-01T06:15:37;18.52;44.00
65239;SHT30;51827;51.186;6.926;2023-03-01T06:16:37;18.52;44.00
65239;SHT30;51827;51.186;6.926;2023-03-01T06:17:38;18.54;44.08
65239;SHT30;51827;51.186;6.926;2023-03-01T06:18:38;18.51;44.05
65239;SHT30;51827;51.186;6.926;2023-03-01T06:19:38;18.51;44.09
65239;SHT30;51827;51.186;6.926;2023-03-01T06:20:39;18.51;44.08
65239;SHT30;51827;51.186;6.926;2023-03-01T06:21:39;18.54;44.11
65239;SHT30;51827;51.186;6.926;2023-03-01T06:22:39;18.52;44.14
65239;SHT30;51827;51.186;6.926;2023-03-01T06:23:39;18.52;44.17
65239;SHT30;51827;51.186;6.926;2023-03-01T06:24:39;18.52;44.18
65239;SHT30;51827;51.186;6.926;2023-03-01T06:25:40;18.54;44.17
65239;SHT30;51827;51.186;6.926;2023-03-01T06:26:40;18.52;44.18
65239;SHT30;51827;51.186;6.926;2023-03-01T06:27:40;18.54;44.18
65239;SHT30;51827;51.186;6.926;2023-03-01T06:28:41;18.54;44.19
65239;SHT30;51827;51.186;6.926;2023-03-01T06:29:41;18.55;44.23
65239;SHT30;51827;51.186;6.926;2023-03-01T06:30:41;18.55;44.22
65239;SHT30;51827;51.186;6.926;2023-03-01T06:31:42;18.52;44.24